sensor_id;sensor_type;location;lat;lon;timestamp;P1;durP1;ratioP1;P2;durP2;ratioP2
56507;SDS011;42403;53.160;6.368;2023-06-04T00:01:04;0.10;;;0.10;;
56507;SDS011;42403;53.160;6.368;2023-06-04T00:03:30;0.10;;;0.10;;
56507;SDS011;42403;53.160;6.368;2023-06-04T00:05:57;0.10;;;0.10;;
56507;SDS011;42403;53.160;6.368;2023-06-04T00:08:23;0.10;;;0.10;;
56507;SDS011;42403;53.160;6.368;2023-06-04T00:10:49;0.10;;;0.10;;
56507;SDS011;42403;53.160;6.368;2023-06-04T00:13:15;0.10;;;0.10;;
56507;SDS011;42403;53.160;6.368;2023-06-04T00:15:41;0.10;;;0.10;;
56507;SDS011;42403;53.160;6.368;2023-06-04T00:18:07;0.10;;;0.10;;
56507;SDS011;42403;53.160;6.368;2023-06-04T00:20:36;0.00;;;0.00;;
56507;SDS011;42403;53.160;6.368;2023-06-04T00:23:02;0.10;;;0.10;;
56507;SDS011;42403;53.160;6.368;2023-06-04T00:25:28;0.10;;;0.10;;
56507;SDS011;42403;53.160;6.368;2023-06-04T00:27:54;0.10;;;0.10;;
56507;SDS011;42403;53.160;6.368;2023-06-04T00:30:20;0.10;;;0.10;;
56507;SDS011;42403;53.160;6.368;2023-06-04T00:32:46;0.10;;;0.10;;
56507;SDS011;42403;53.160;6.368;2023-06-04T00:35:12;0.10;;;0.10;;
56507;SDS011;42403;53.160;6.368;2023-06-04T00:37:38;0.10;;;0.10;;
56507;SDS011;42403;53.160;6.368;2023-06-04T00:40:05;0.10;;;0.10;;
56507;SDS011;42403;53.160;6.368;2023-06-04T00:42:31;0.32;;;0.32;;
56507;SDS011;42403;53.160;6.368;2023-06-04T00:44:58;0.10;;;0.10;;
56507;SDS011;42403;53.160;6.368;2023-06-04T00:47:24;0.10;;;0.10;;
56507;SDS011;42403;53.160;6.368;2023-06-04T00:49:50;0.38;;;0.38;;
56507;SDS011;42403;53.160;6.368;2023-06-04T00:52:16;0.10;;;0.10;;
56507;SDS011;42403;53.160;6.368;2023-06-04T00:54:43;0.10;;;0.10;;
56507;SDS011;42403;53.160;6.368;2023-06-04T00:57:09;0.10;;;0.10;;
56507;SDS011;42403;53.160;6.368;2023-06-04T00:59:35;0.10;;;0.10;;
56507;SDS011;42403;53.160;6.368;2023-06-04T01:02:12;0.10;;;0.10;;
56507;SDS011;42403;53.160;6.368;2023-06-04T01:04:49;0.10;;;0.10;;
56507;SDS011;42403;53.160;6.368;2023-06-04T01:07:15;0.10;;;0.10;;
56507;SDS011;42403;53.160;6.368;2023-06-04T01:09:43;0.40;;;0.40;;
56507;SDS011;42403;53.160;6.368;2023-06-04T01:12:10;0.10;;;0.10;;
56507;SDS011;42403;53.160;6.368;2023-06-04T01:14:36;0.00;;;0.00;;
56507;SDS011;42403;53.160;6.368;2023-06-04T01:17:06;0.10;;;0.10;;
56507;SDS011;42403;53.160;6.368;2023-06-04T01:24:54;0.10;;;0.10;;
56507;SDS011;42403;53.160;6.368;2023-06-04T01:27:22;0.10;;;0.10;;
56507;SDS011;42403;53.160;6.368;2023-06-04T01:29:48;0.10;;;0.10;;
56507;SDS011;42403;53.160;6.368;2023-06-04T01:32:15;0.10;;;0.10;;
56507;SDS011;42403;53.160;6.368;2023-06-04T01:34:45;0.10;;;0.10;;
56507;SDS011;42403;53.160;6.368;2023-06-04T01:37:11;0.10;;;0.10;;
56507;SDS011;42403;53.160;6.368;2023-06-04T01:39:38;0.10;;;0.10;;
56507;SDS011;42403;53.160;6.368;2023-06-04T01:42:04;0.10;;;0.10;;
56507;SDS011;42403;53.160;6.368;2023-06-04T01:44:30;0.10;;;0.10;;
56507;SDS011;42403;53.160;6.368;2023-06-04T01:46:56;0.10;;;0.10;;
56507;SDS011;42403;53.160;6.368;2023-06-04T01:49:22;0.10;;;0.10;;
56507;SDS011;42403;53.160;6.368;2023-06-04T01:51:48;0.10;;;0.10;;
56507;SDS011;42403;53.160;6.368;2023-06-04T01:54:14;0.10;;;0.10;;
56507;SDS011;42403;53.160;6.368;2023-06-04T01:56:41;0.10;;;0.10;;
56507;SDS011;42403;53.160;6.368;2023-06-04T01:59:07;0.10;;;0.10;;
56507;SDS011;42403;53.160;6.368;2023-06-04T02:01:37;0.10;;;0.10;;
56507;SDS011;42403;53.160;6.368;2023-06-04T02:04:03;0.10;;;0.10;;
56507;SDS011;42403;53.160;6.368;2023-06-04T02:06:29;0.10;;;0.10;;
56507;SDS011;42403;53.160;6.368;2023-06-04T02:08:56;0.20;;;0.20;;
56507;SDS011;42403;53.160;6.368;2023-06-04T02:11:22;0.10;;;0.10;;
56507;SDS011;42403;53.160;6.368;2023-06-04T02:13:48;0.10;;;0.10;;
56507;SDS011;42403;53.160;6.368;2023-06-04T02:16:14;0.10;;;0.10;;
56507;SDS011;42403;53.160;6.368;2023-06-04T02:18:40;0.10;;;0.10;;
56507;SDS011;42403;53.160;6.368;2023-06-04T02:21:06;0.10;;;0.10;;
56507;SDS011;42403;53.160;6.368;2023-06-04T02:23:32;0.10;;;0.10;;
56507;SDS011;42403;53.160;6.368;2023-06-04T02:25:58;0.10;;;0.10;;
56507;SDS011;42403;53.160;6.368;2023-06-04T02:28:25;0.10;;;0.10;;
56507;SDS011;42403;53.160;6.368;2023-06-04T02:30:51;0.10;;;0.10;;
56507;SDS011;42403;53.160;6.368;2023-06-04T02:33:18;0.20;;;0.20;;
56507;SDS011;42403;53.160;6.368;2023-06-04T02:35:45;0.10;;;0.10;;
56507;SDS011;42403;53.160;6.368;2023-06-04T02:38:11;0.10;;;0.10;;
56507;SDS011;42403;53.160;6.368;2023-06-04T02:40:38;0.10;;;0.10;;
56507;SDS011;42403;53.160;6.368;2023-06-04T02:43:04;0.10;;;0.10;;
56507;SDS011;42403;53.160;6.368;2023-06-04T02:45:30;0.10;;;0.10;;
56507;SDS011;42403;53.160;6.368;2023-06-04T02:47:57;0.10;;;0.10;;
56507;SDS011;42403;53.160;6.368;2023-06-04T02:50:23;0.00;;;0.00;;
56507;SDS011;42403;53.160;6.368;2023-06-04T02:52:49;0.10;;;0.10;;
56507;SDS011;42403;53.160;6.368;2023-06-04T02:55:15;0.10;;;0.10;;
56507;SDS011;42403;53.160;6.368;2023-06-04T02:57:42;0.10;;;0.10;;
56507;SDS011;42403;53.160;6.368;2023-06-04T03:00:09;0.10;;;0.10;;
56507;SDS011;42403;53.160;6.368;2023-06-04T03:02:44;0.10;;;0.10;;
56507;SDS011;42403;53.160;6.368;2023-06-04T03:05:12;0.10;;;0.10;;
56507;SDS011;42403;53.160;6.368;2023-06-04T03:07:39;0.10;;;0.10;;
56507;SDS011;42403;53.160;6.368;2023-06-04T03:10:07;0.10;;;0.10;;
56507;SDS011;42403;53.160;6.368;2023-06-04T03:12:34;0.10;;;0.10;;
56507;SDS011;42403;53.160;6.368;2023-06-04T03:15:00;0.10;;;0.10;;
56507;SDS011;42403;53.160;6.368;2023-06-04T03:17:27;0.10;;;0.10;;
56507;SDS011;42403;53.160;6.368;2023-06-04T03:19:53;0.00;;;0.00;;
56507;SDS011;42403;53.160;6.368;2023-06-04T03:22:21;0.10;;;0.10;;
56507;SDS011;42403;53.160;6.368;2023-06-04T03:24:47;0.10;;;0.10;;
56507;SDS011;42403;53.160;6.368;2023-06-04T03:27:13;0.10;;;0.10;;
56507;SDS011;42403;53.160;6.368;2023-06-04T03:29:39;0.10;;;0.10;;
56507;SDS011;42403;53.160;6.368;2023-06-04T03:32:07;0.10;;;0.10;;
56507;SDS011;42403;53.160;6.368;2023-06-04T03:34:33;0.10;;;0.10;;
56507;SDS011;42403;53.160;6.368;2023-06-04T03:36:59;0.10;;;0.10;;
56507;SDS011;42403;53.160;6.368;2023-06-04T03:39:25;0.10;;;0.10;;
56507;SDS011;42403;53.160;6.368;2023-06-04T03:41:51;0.10;;;0.10;;
56507;SDS011;42403;53.160;6.368;2023-06-04T03:44:17;0.10;;;0.10;;
56507;SDS011;42403;53.160;6.368;2023-06-04T03:46:44;0.10;;;0.10;;
56507;SDS011;42403;53.160;6.368;2023-06-04T03:49:10;0.10;;;0.10;;
56507;SDS011;42403;53.160;6.368;2023-06-04T03:51:37;0.10;;;0.10;;
56507;SDS011;42403;53.160;6.368;2023-06-04T03:54:03;0.10;;;0.10;;
56507;SDS011;42403;53.160;6.368;2023-06-04T03:56:29;0.10;;;0.10;;
56507;SDS011;42403;53.160;6.368;2023-06-04T03:58:55;0.10;;;0.10;;
56507;SDS011;42403;53.160;6.368;2023-06-04T04:01:22;0.10;;;0.10;;
56507;SDS011;42403;53.160;6.368;2023-06-04T04:03:48;0.30;;;0.30;;
56507;SDS011;42403;53.160;6.368;2023-06-04T04:06:16;0.10;;;0.10;;
56507;SDS011;42403;53.160;6.368;2023-06-04T04:08:42;0.10;;;0.10;;
56507;SDS011;42403;53.160;6.368;2023-06-04T04:11:09;0.10;;;0.10;;
56507;SDS011;42403;53.160;6.368;2023-06-04T04:13:35;0.10;;;0.10;;
56507;SDS011;42403;53.160;6.368;2023-06-04T04:16:01;0.10;;;0.10;;
56507;SDS011;42403;53.160;6.368;2023-06-04T04:18:27;0.10;;;0.10;;
56507;SDS011;42403;53.160;6.368;2023-06-04T04:20:53;0.10;;;0.10;;
56507;SDS011;42403;53.160;6.368;2023-06-04T04:23:20;0.10;;;0.10;;
56507;SDS011;42403;53.160;6.368;2023-06-04T04:25:48;0.10;;;0.10;;
56507;SDS011;42403;53.160;6.368;2023-06-04T04:28:14;0.10;;;0.10;;
56507;SDS011;42403;53.160;6.368;2023-06-04T04:30:42;0.30;;;0.30;;
56507;SDS011;42403;53.160;6.368;2023-06-04T04:33:09;0.10;;;0.10;;
56507;SDS011;42403;53.160;6.368;2023-06-04T04:35:36;0.10;;;0.10;;
56507;SDS011;42403;53.160;6.368;2023-06-04T04:38:02;0.10;;;0.10;;
56507;SDS011;42403;53.160;6.368;2023-06-04T04:40:32;0.10;;;0.10;;
56507;SDS011;42403;53.160;6.368;2023-06-04T04:42:58;0.10;;;0.10;;
56507;SDS011;42403;53.160;6.368;2023-06-04T04:45:24;0.10;;;0.10;;
56507;SDS011;42403;53.160;6.368;2023-06-04T04:47:50;0.10;;;0.10;;
56507;SDS011;42403;53.160;6.368;2023-06-04T04:50:16;0.10;;;0.10;;
56507;SDS011;42403;53.160;6.368;2023-06-04T04:52:43;0.00;;;0.00;;
56507;SDS011;42403;53.160;6.368;2023-06-04T04:55:09;0.10;;;0.10;;
56507;SDS011;42403;53.160;6.368;2023-06-04T04:57:36;0.10;;;0.10;;
56507;SDS011;42403;53.160;6.368;2023-06-04T05:00:03;0.10;;;0.10;;
56507;SDS011;42403;53.160;6.368;2023-06-04T05:02:34;0.00;;;0.00;;
56507;SDS011;42403;53.160;6.368;2023-06-04T05:05:01;0.10;;;0.10;;
56507;SDS011;42403;53.160;6.368;2023-06-04T05:07:27;0.10;;;0.10;;
56507;SDS011;42403;53.160;6.368;2023-06-04T05:09:53;0.10;;;0.10;;
56507;SDS011;42403;53.160;6.368;2023-06-04T05:12:19;0.10;;;0.10;;
56507;SDS011;42403;53.160;6.368;2023-06-04T05:14:45;0.10;;;0.10;;
56507;SDS011;42403;53.160;6.368;2023-06-04T05:17:12;0.10;;;0.10;;
56507;SDS011;42403;53.160;6.368;2023-06-04T05:19:41;0.10;;;0.10;;
56507;SDS011;42403;53.160;6.368;2023-06-04T05:22:07;0.10;;;0.10;;
56507;SDS011;42403;53.160;6.368;2023-06-04T05:24:33;0.10;;;0.10;;
56507;SDS011;42403;53.160;6.368;2023-06-04T05:27:00;0.10;;;0.10;;
56507;SDS011;42403;53.160;6.368;2023-06-04T05:29:28;0.10;;;0.10;;
56507;SDS011;42403;53.160;6.368;2023-06-04T05:31:54;0.10;;;0.10;;
56507;SDS011;42403;53.160;6.368;2023-06-04T05:34:21;0.10;;;0.10;;
56507;SDS011;42403;53.160;6.368;2023-06-04T05:36:47;0.10;;;0.10;;
56507;SDS011;42403;53.160;6.368;2023-06-04T05:39:13;0.10;;;0.10;;
56507;SDS011;42403;53.160;6.368;2023-06-04T05:41:39;4.20;;;1.10;;
56507;SDS011;42403;53.160;6.368;2023-06-04T05:44:05;152.93;;;44.70;;
56507;SDS011;42403;53.160;6.368;2023-06-04T05:46:32;153.23;;;39.38;;
56507;SDS011;42403;53.160;6.368;2023-06-04T05:48:58;146.30;;;38.63;;
56507;SDS011;42403;53.160;6.368;2023-06-04T05:51:24;137.65;;;37.17;;
56507;SDS011;42403;53.160;6.368;2023-06-04T05:53:50;138.38;;;37.55;;
56507;SDS011;42403;53.160;6.368;2023-06-04T05:56:16;133.23;;;36.80;;
56507;SDS011;42403;53.160;6.368;2023-06-04T05:58:42;131.15;;;36.60;;
56507;SDS011;42403;53.160;6.368;2023-06-04T06:01:08;129.75;;;36.20;;
56507;SDS011;42403;53.160;6.368;2023-06-04T06:03:34;126.53;;;35.75;;
56507;SDS011;42403;53.160;6.368;2023-06-04T06:06:01;124.18;;;35.50;;
56507;SDS011;42403;53.160;6.368;2023-06-04T06:08:27;124.95;;;35.92;;
56507;SDS011;42403;53.160;6.368;2023-06-04T06:10:53;123.35;;;35.75;;
56507;SDS011;42403;53.160;6.368;2023-06-04T06:13:20;119.13;;;35.05;;
56507;SDS011;42403;53.160;6.368;2023-06-04T06:15:46;117.68;;;34.38;;
56507;SDS011;42403;53.160;6.368;2023-06-04T06:18:17;118.60;;;35.20;;
56507;SDS011;42403;53.160;6.368;2023-06-04T06:20:43;115.88;;;34.20;;
56507;SDS011;42403;53.160;6.368;2023-06-04T06:23:10;115.38;;;34.70;;
56507;SDS011;42403;53.160;6.368;2023-06-04T06:25:36;112.80;;;34.25;;
56507;SDS011;42403;53.160;6.368;2023-06-04T06:28:02;110.45;;;33.97;;
56507;SDS011;42403;53.160;6.368;2023-06-04T06:30:28;109.63;;;33.88;;
56507;SDS011;42403;53.160;6.368;2023-06-04T06:32:55;108.10;;;32.97;;
56507;SDS011;42403;53.160;6.368;2023-06-04T06:35:21;109.10;;;33.70;;
56507;SDS011;42403;53.160;6.368;2023-06-04T06:37:47;111.30;;;34.00;;
56507;SDS011;42403;53.160;6.368;2023-06-04T06:40:13;106.85;;;33.50;;
56507;SDS011;42403;53.160;6.368;2023-06-04T06:42:39;110.10;;;34.00;;
56507;SDS011;42403;53.160;6.368;2023-06-04T06:45:05;107.10;;;33.40;;
56507;SDS011;42403;53.160;6.368;2023-06-04T06:47:32;109.38;;;34.03;;
56507;SDS011;42403;53.160;6.368;2023-06-04T06:49:58;110.60;;;34.00;;
56507;SDS011;42403;53.160;6.368;2023-06-04T06:52:24;105.00;;;33.57;;
56507;SDS011;42403;53.160;6.368;2023-06-04T06:54:50;109.38;;;33.65;;
56507;SDS011;42403;53.160;6.368;2023-06-04T06:57:17;112.85;;;34.30;;
56507;SDS011;42403;53.160;6.368;2023-06-04T06:59:43;114.95;;;34.53;;
56507;SDS011;42403;53.160;6.368;2023-06-04T07:02:09;114.68;;;34.28;;
56507;SDS011;42403;53.160;6.368;2023-06-04T07:04:36;115.80;;;34.50;;
56507;SDS011;42403;53.160;6.368;2023-06-04T07:07:02;112.72;;;34.38;;
56507;SDS011;42403;53.160;6.368;2023-06-04T07:09:28;113.60;;;34.60;;
56507;SDS011;42403;53.160;6.368;2023-06-04T07:11:54;112.15;;;34.20;;
56507;SDS011;42403;53.160;6.368;2023-06-04T07:14:20;111.68;;;34.10;;
56507;SDS011;42403;53.160;6.368;2023-06-04T07:16:46;113.65;;;34.17;;
56507;SDS011;42403;53.160;6.368;2023-06-04T07:19:13;112.32;;;34.35;;
56507;SDS011;42403;53.160;6.368;2023-06-04T07:21:39;113.82;;;34.63;;
56507;SDS011;42403;53.160;6.368;2023-06-04T07:24:05;112.85;;;34.30;;
56507;SDS011;42403;53.160;6.368;2023-06-04T07:26:32;110.95;;;33.83;;
56507;SDS011;42403;53.160;6.368;2023-06-04T07:28:58;112.70;;;34.37;;
56507;SDS011;42403;53.160;6.368;2023-06-04T07:31:24;113.22;;;34.83;;
56507;SDS011;42403;53.160;6.368;2023-06-04T07:33:50;108.40;;;34.08;;
56507;SDS011;42403;53.160;6.368;2023-06-04T07:36:16;108.05;;;34.05;;
56507;SDS011;42403;53.160;6.368;2023-06-04T07:38:42;109.35;;;34.13;;
56507;SDS011;42403;53.160;6.368;2023-06-04T07:41:08;111.95;;;34.53;;
56507;SDS011;42403;53.160;6.368;2023-06-04T07:43:35;112.68;;;34.47;;
56507;SDS011;42403;53.160;6.368;2023-06-04T07:46:01;113.22;;;34.50;;
56507;SDS011;42403;53.160;6.368;2023-06-04T07:48:28;130.47;;;36.60;;
56507;SDS011;42403;53.160;6.368;2023-06-04T07:51:00;126.80;;;36.03;;
56507;SDS011;42403;53.160;6.368;2023-06-04T07:53:26;127.30;;;36.60;;
56507;SDS011;42403;53.160;6.368;2023-06-04T07:55:53;125.80;;;36.45;;
56507;SDS011;42403;53.160;6.368;2023-06-04T07:58:19;124.50;;;35.95;;
56507;SDS011;42403;53.160;6.368;2023-06-04T08:00:45;120.13;;;35.67;;
56507;SDS011;42403;53.160;6.368;2023-06-04T08:03:11;117.72;;;35.55;;
56507;SDS011;42403;53.160;6.368;2023-06-04T08:05:37;117.03;;;35.03;;
56507;SDS011;42403;53.160;6.368;2023-06-04T08:08:03;116.63;;;35.33;;
56507;SDS011;42403;53.160;6.368;2023-06-04T08:10:30;119.88;;;35.63;;
56507;SDS011;42403;53.160;6.368;2023-06-04T08:12:56;120.03;;;35.75;;
56507;SDS011;42403;53.160;6.368;2023-06-04T08:15:22;122.18;;;36.22;;
56507;SDS011;42403;53.160;6.368;2023-06-04T08:17:48;121.70;;;36.40;;
56507;SDS011;42403;53.160;6.368;2023-06-04T08:20:15;127.63;;;36.42;;
56507;SDS011;42403;53.160;6.368;2023-06-04T08:22:41;128.63;;;37.17;;
56507;SDS011;42403;53.160;6.368;2023-06-04T08:25:07;123.38;;;36.28;;
56507;SDS011;42403;53.160;6.368;2023-06-04T08:27:34;122.50;;;36.25;;
56507;SDS011;42403;53.160;6.368;2023-06-04T08:30:00;121.85;;;36.30;;
56507;SDS011;42403;53.160;6.368;2023-06-04T08:32:27;122.45;;;36.65;;
56507;SDS011;42403;53.160;6.368;2023-06-04T08:34:54;118.18;;;35.60;;
56507;SDS011;42403;53.160;6.368;2023-06-04T08:37:20;115.63;;;35.30;;
56507;SDS011;42403;53.160;6.368;2023-06-04T08:39:46;112.57;;;35.05;;
56507;SDS011;42403;53.160;6.368;2023-06-04T08:42:18;114.05;;;35.28;;
56507;SDS011;42403;53.160;6.368;2023-06-04T08:44:51;109.13;;;34.83;;
56507;SDS011;42403;53.160;6.368;2023-06-04T08:47:19;110.30;;;34.80;;
56507;SDS011;42403;53.160;6.368;2023-06-04T08:49:48;107.50;;;34.27;;
56507;SDS011;42403;53.160;6.368;2023-06-04T08:52:15;107.20;;;34.13;;
56507;SDS011;42403;53.160;6.368;2023-06-04T20:41:12;0.00;;;0.00;;
56507;SDS011;42403;53.160;6.368;2023-06-04T20:46:11;0.10;;;0.10;;
56507;SDS011;42403;53.160;6.368;2023-06-04T20:48:38;0.10;;;0.10;;
56507;SDS011;42403;53.160;6.368;2023-06-04T20:51:04;0.13;;;0.13;;
56507;SDS011;42403;53.160;6.368;2023-06-04T20:53:30;0.10;;;0.10;;
56507;SDS011;42403;53.160;6.368;2023-06-04T20:55:56;0.10;;;0.10;;
56507;SDS011;42403;53.160;6.368;2023-06-04T20:58:22;0.10;;;0.10;;
56507;SDS011;42403;53.160;6.368;2023-06-04T21:00:48;0.10;;;0.10;;
56507;SDS011;42403;53.160;6.368;2023-06-04T21:03:18;0.10;;;0.10;;
56507;SDS011;42403;53.160;6.368;2023-06-04T21:05:45;0.10;;;0.10;;
56507;SDS011;42403;53.160;6.368;2023-06-04T21:08:11;0.10;;;0.10;;
56507;SDS011;42403;53.160;6.368;2023-06-04T21:10:37;0.10;;;0.10;;
56507;SDS011;42403;53.160;6.368;2023-06-04T21:13:04;0.10;;;0.10;;
56507;SDS011;42403;53.160;6.368;2023-06-04T21:15:31;0.10;;;0.10;;
56507;SDS011;42403;53.160;6.368;2023-06-04T21:17:57;1.27;;;1.17;;
56507;SDS011;42403;53.160;6.368;2023-06-04T21:20:23;0.10;;;0.10;;
56507;SDS011;42403;53.160;6.368;2023-06-04T21:22:49;0.10;;;0.10;;
56507;SDS011;42403;53.160;6.368;2023-06-04T21:25:16;0.10;;;0.10;;
56507;SDS011;42403;53.160;6.368;2023-06-04T21:27:42;0.10;;;0.10;;
56507;SDS011;42403;53.160;6.368;2023-06-04T21:30:08;0.10;;;0.10;;
56507;SDS011;42403;53.160;6.368;2023-06-04T21:32:34;0.20;;;0.20;;
56507;SDS011;42403;53.160;6.368;2023-06-04T21:35:01;0.10;;;0.10;;
56507;SDS011;42403;53.160;6.368;2023-06-04T21:37:27;0.10;;;0.10;;
56507;SDS011;42403;53.160;6.368;2023-06-04T21:39:53;0.10;;;0.10;;
56507;SDS011;42403;53.160;6.368;2023-06-04T21:42:19;0.00;;;0.00;;
56507;SDS011;42403;53.160;6.368;2023-06-04T21:44:45;0.10;;;0.10;;
56507;SDS011;42403;53.160;6.368;2023-06-04T21:47:11;0.10;;;0.10;;
56507;SDS011;42403;53.160;6.368;2023-06-04T21:49:37;0.05;;;0.05;;
56507;SDS011;42403;53.160;6.368;2023-06-04T21:52:03;0.57;;;0.57;;
56507;SDS011;42403;53.160;6.368;2023-06-04T21:54:29;0.10;;;0.10;;
56507;SDS011;42403;53.160;6.368;2023-06-04T21:56:55;0.13;;;0.13;;
56507;SDS011;42403;53.160;6.368;2023-06-04T21:59:21;0.10;;;0.10;;
56507;SDS011;42403;53.160;6.368;2023-06-04T22:01:47;0.10;;;0.10;;
56507;SDS011;42403;53.160;6.368;2023-06-04T22:04:13;0.00;;;0.00;;
56507;SDS011;42403;53.160;6.368;2023-06-04T22:06:40;0.10;;;0.10;;
56507;SDS011;42403;53.160;6.368;2023-06-04T22:09:06;0.10;;;0.10;;
56507;SDS011;42403;53.160;6.368;2023-06-04T22:11:32;0.10;;;0.10;;
56507;SDS011;42403;53.160;6.368;2023-06-04T22:13:58;0.10;;;0.10;;
56507;SDS011;42403;53.160;6.368;2023-06-04T22:16:24;0.10;;;0.10;;
56507;SDS011;42403;53.160;6.368;2023-06-04T22:18:50;0.65;;;0.65;;
56507;SDS011;42403;53.160;6.368;2023-06-04T22:21:16;0.10;;;0.10;;
56507;SDS011;42403;53.160;6.368;2023-06-04T22:23:44;0.10;;;0.10;;
56507;SDS011;42403;53.160;6.368;2023-06-04T22:26:10;0.10;;;0.10;;
56507;SDS011;42403;53.160;6.368;2023-06-04T22:28:36;0.40;;;0.40;;
56507;SDS011;42403;53.160;6.368;2023-06-04T22:31:02;0.10;;;0.10;;
56507;SDS011;42403;53.160;6.368;2023-06-04T22:33:29;0.20;;;0.20;;
56507;SDS011;42403;53.160;6.368;2023-06-04T22:35:55;0.10;;;0.10;;
56507;SDS011;42403;53.160;6.368;2023-06-04T22:38:21;0.10;;;0.10;;
56507;SDS011;42403;53.160;6.368;2023-06-04T22:40:47;0.10;;;0.10;;
56507;SDS011;42403;53.160;6.368;2023-06-04T22:43:14;0.00;;;0.00;;
56507;SDS011;42403;53.160;6.368;2023-06-04T22:45:40;0.10;;;0.10;;
56507;SDS011;42403;53.160;6.368;2023-06-04T22:48:06;0.10;;;0.10;;
56507;SDS011;42403;53.160;6.368;2023-06-04T22:50:32;0.10;;;0.10;;
56507;SDS011;42403;53.160;6.368;2023-06-04T22:53:02;0.10;;;0.10;;
56507;SDS011;42403;53.160;6.368;2023-06-04T22:55:29;0.10;;;0.10;;
56507;SDS011;42403;53.160;6.368;2023-06-04T22:57:55;0.10;;;0.10;;
56507;SDS011;42403;53.160;6.368;2023-06-04T23:00:21;0.10;;;0.10;;
56507;SDS011;42403;53.160;6.368;2023-06-04T23:02:47;0.10;;;0.10;;
56507;SDS011;42403;53.160;6.368;2023-06-04T23:05:13;0.10;;;0.10;;
56507;SDS011;42403;53.160;6.368;2023-06-04T23:07:39;0.10;;;0.10;;
56507;SDS011;42403;53.160;6.368;2023-06-04T23:10:05;0.10;;;0.10;;
56507;SDS011;42403;53.160;6.368;2023-06-04T23:12:31;0.10;;;0.10;;
56507;SDS011;42403;53.160;6.368;2023-06-04T23:14:57;0.10;;;0.10;;
56507;SDS011;42403;53.160;6.368;2023-06-04T23:17:23;0.10;;;0.10;;
56507;SDS011;42403;53.160;6.368;2023-06-04T23:19:49;0.10;;;0.10;;
56507;SDS011;42403;53.160;6.368;2023-06-04T23:22:15;0.10;;;0.10;;
56507;SDS011;42403;53.160;6.368;2023-06-04T23:24:41;0.10;;;0.10;;
56507;SDS011;42403;53.160;6.368;2023-06-04T23:27:08;0.10;;;0.10;;
56507;SDS011;42403;53.160;6.368;2023-06-04T23:29:34;0.10;;;0.10;;
56507;SDS011;42403;53.160;6.368;2023-06-04T23:32:00;0.10;;;0.10;;
56507;SDS011;42403;53.160;6.368;2023-06-04T23:34:26;0.10;;;0.10;;
56507;SDS011;42403;53.160;6.368;2023-06-04T23:36:52;0.10;;;0.10;;
56507;SDS011;42403;53.160;6.368;2023-06-04T23:39:18;0.10;;;0.10;;
56507;SDS011;42403;53.160;6.368;2023-06-04T23:41:44;0.10;;;0.10;;
56507;SDS011;42403;53.160;6.368;2023-06-04T23:44:10;0.10;;;0.10;;
56507;SDS011;42403;53.160;6.368;2023-06-04T23:46:36;0.10;;;0.10;;
56507;SDS011;42403;53.160;6.368;2023-06-04T23:49:02;0.10;;;0.10;;
56507;SDS011;42403;53.160;6.368;2023-06-04T23:51:28;0.10;;;0.10;;
56507;SDS011;42403;53.160;6.368;2023-06-04T23:53:54;0.10;;;0.10;;
56507;SDS011;42403;53.160;6.368;2023-06-04T23:56:20;0.10;;;0.10;;
56507;SDS011;42403;53.160;6.368;2023-06-04T23:58:47;0.10;;;0.10;;
